createdAt,value
2022-12-04T00:02:20.154Z,3.65
2022-12-04T00:04:48.148Z,3.64
2022-12-04T00:07:16.111Z,3.44
2022-12-04T00:09:44.544Z,3.68
2022-12-04T00:12:12.472Z,3.75
2022-12-04T00:15:16.586Z,3.66
2022-12-04T00:17:29.920Z,3.71
2022-12-04T00:19:57.891Z,3.58
2022-12-04T00:22:27.612Z,3.57
2022-12-04T00:24:55.485Z,3.63
2022-12-04T00:27:27.123Z,3.46
2022-12-04T00:29:56.872Z,3.71
2022-12-04T00:32:27.720Z,3.51
2022-12-04T00:34:55.681Z,3.68
2022-12-04T00:37:23.663Z,3.70
2022-12-04T00:39:52.637Z,3.77
2022-12-04T00:42:20.819Z,3.55
2022-12-04T00:44:48.969Z,3.74
2022-12-04T00:47:19.608Z,3.80
2022-12-04T00:49:47.807Z,3.79
2022-12-04T00:52:16.177Z,3.76
2022-12-04T00:54:44.235Z,3.70
2022-12-04T00:57:12.474Z,3.78
2022-12-04T00:59:40.747Z,3.77
2022-12-04T01:02:08.982Z,3.85
2022-12-04T01:04:38.298Z,3.77
2022-12-04T01:07:06.502Z,3.88
2022-12-04T01:09:34.940Z,3.86
2022-12-04T01:12:02.853Z,3.81
2022-12-04T01:14:30.773Z,3.62
2022-12-04T01:16:58.849Z,3.96
2022-12-04T01:19:26.775Z,3.85
2022-12-04T01:21:56.352Z,3.79
2022-12-04T01:24:24.279Z,3.61
2022-12-04T01:26:52.331Z,3.82
2022-12-04T01:29:20.180Z,3.50
2022-12-04T01:31:48.235Z,3.72
2022-12-04T01:34:16.220Z,3.35
2022-12-04T01:36:44.121Z,3.49
2022-12-04T01:39:13.590Z,3.28
2022-12-04T01:41:41.689Z,3.30
2022-12-04T01:44:17.169Z,3.57
2022-12-04T01:46:46.445Z,3.44
2022-12-04T01:49:18.638Z,3.34
2022-12-04T01:51:49.717Z,3.20
2022-12-04T01:54:28.479Z,3.39
2022-12-04T01:57:00.839Z,3.54
2022-12-04T01:59:34.620Z,3.54
2022-12-04T02:02:05.890Z,3.33
2022-12-04T02:04:35.444Z,3.54
2022-12-04T02:07:03.807Z,3.53
2022-12-04T02:09:34.451Z,3.54
2022-12-04T02:12:09.573Z,3.41
2022-12-04T02:14:45.737Z,3.48
2022-12-04T02:17:21.644Z,3.52
2022-12-04T02:20:01.404Z,3.65
2022-12-04T02:22:43.504Z,3.50
2022-12-04T02:25:23.559Z,3.57
2022-12-04T02:28:13.872Z,3.67
2022-12-04T02:30:44.294Z,3.50
2022-12-04T02:33:19.142Z,3.50
2022-12-04T02:35:51.194Z,3.52
2022-12-04T02:38:23.712Z,3.65
2022-12-04T02:40:58.139Z,3.70
2022-12-04T02:43:31.357Z,3.73
2022-12-04T02:46:04.019Z,3.53
2022-12-04T02:48:35.361Z,3.48
2022-12-04T02:51:07.861Z,3.52
2022-12-04T02:53:41.315Z,3.55
2022-12-04T02:56:13.125Z,3.45
2022-12-04T02:58:48.177Z,3.35
2022-12-04T03:01:21.895Z,3.49
2022-12-04T03:03:54.249Z,3.24
2022-12-04T03:06:24.441Z,3.39
2022-12-04T03:08:57.125Z,3.65
2022-12-04T03:11:27.447Z,3.77
2022-12-04T03:14:01.829Z,3.71
2022-12-04T03:16:34.226Z,3.81
2022-12-04T03:19:06.753Z,3.44
2022-12-04T03:21:41.304Z,3.66
2022-12-04T03:24:15.957Z,3.78
2022-12-04T03:26:47.811Z,3.66
2022-12-04T03:29:21.586Z,3.38
2022-12-04T03:31:55.562Z,3.44
2022-12-04T03:34:29.235Z,3.34
2022-12-04T03:37:02.838Z,3.16
2022-12-04T03:39:39.158Z,3.26
2022-12-04T03:42:14.217Z,3.47
2022-12-04T03:44:48.566Z,3.42
2022-12-04T03:47:21.917Z,3.42
2022-12-04T03:49:58.523Z,3.42
2022-12-04T03:52:33.414Z,3.36
2022-12-04T03:55:05.687Z,3.50
2022-12-04T03:57:40.194Z,3.59
2022-12-04T04:00:13.072Z,3.54
2022-12-04T04:02:45.963Z,3.49
2022-12-04T04:05:15.126Z,3.47
2022-12-04T04:07:47.861Z,3.37
2022-12-04T04:10:18.056Z,3.49
2022-12-04T04:13:11.983Z,3.59
2022-12-04T04:16:03.698Z,3.71
2022-12-04T04:18:50.987Z,3.52
2022-12-04T04:21:41.730Z,3.50
2022-12-04T04:24:17.615Z,3.46
2022-12-04T04:26:47.718Z,3.44
2022-12-04T04:29:16.418Z,3.57
2022-12-04T04:31:51.380Z,3.47
2022-12-04T04:34:25.886Z,3.42
2022-12-04T04:37:00.514Z,3.27
2022-12-04T04:39:36.279Z,3.39
2022-12-04T04:42:12.340Z,3.51
2022-12-04T04:44:46.050Z,3.42
2022-12-04T04:47:22.286Z,3.20
2022-12-04T04:49:54.504Z,3.27
2022-12-04T04:52:24.688Z,3.35
2022-12-04T04:54:52.597Z,3.30
2022-12-04T04:57:28.428Z,3.38
2022-12-04T04:59:56.889Z,3.31
2022-12-04T05:02:28.205Z,3.30
2022-12-04T05:04:56.702Z,3.14
2022-12-04T05:07:24.578Z,3.22
2022-12-04T05:09:52.515Z,3.16
2022-12-04T05:12:20.466Z,3.14
2022-12-04T05:14:48.842Z,3.28
2022-12-04T05:17:17.218Z,3.38
2022-12-04T05:19:56.869Z,3.27
2022-12-04T05:22:27.694Z,3.29
2022-12-04T05:24:55.859Z,3.07
2022-12-04T05:27:24.703Z,3.20
2022-12-04T05:29:54.112Z,3.30
2022-12-04T05:32:22.818Z,3.08
2022-12-04T05:34:53.438Z,2.98
2022-12-04T05:37:22.080Z,3.07
2022-12-04T05:39:50.199Z,3.29
2022-12-04T05:42:18.496Z,3.22
2022-12-04T05:44:46.526Z,2.99
2022-12-04T05:47:14.769Z,2.97
2022-12-04T05:49:42.754Z,2.93
2022-12-04T05:52:12.225Z,2.82
2022-12-04T05:54:40.630Z,3.08
2022-12-04T05:57:10.000Z,2.96
2022-12-04T05:59:38.149Z,2.94
2022-12-04T06:02:06.128Z,3.07
2022-12-04T06:04:34.249Z,2.98
2022-12-04T06:07:02.069Z,2.92
2022-12-04T06:09:31.308Z,2.81
2022-12-04T06:11:59.491Z,2.79
2022-12-04T06:14:27.419Z,2.90
2022-12-04T06:16:55.424Z,2.86
2022-12-04T06:19:24.465Z,2.84
2022-12-04T06:21:54.419Z,2.81
2022-12-04T06:24:23.920Z,2.84
2022-12-04T06:27:26.066Z,2.99
2022-12-04T06:29:45.688Z,2.78
2022-12-04T06:32:18.008Z,2.80
2022-12-04T06:34:51.928Z,2.86
2022-12-04T06:37:20.313Z,2.95
2022-12-04T06:39:48.740Z,2.83
2022-12-04T06:42:18.461Z,2.77
2022-12-04T06:44:46.647Z,2.77
2022-12-04T06:47:14.826Z,2.95
2022-12-04T06:49:47.084Z,2.81
2022-12-04T06:52:15.869Z,2.73
2022-12-04T06:54:44.202Z,2.78
2022-12-04T06:57:12.223Z,2.77
2022-12-04T06:59:41.601Z,2.99
2022-12-04T07:02:10.597Z,3.06
2022-12-04T07:04:38.551Z,2.77
2022-12-04T07:07:06.454Z,2.84
2022-12-04T07:09:34.381Z,2.95
2022-12-04T07:12:02.720Z,2.89
2022-12-04T07:14:30.610Z,2.88
2022-12-04T07:17:01.588Z,2.90
2022-12-04T07:19:30.895Z,2.50
2022-12-04T07:21:59.163Z,2.81
2022-12-04T07:24:27.612Z,2.79
2022-12-04T07:26:55.530Z,2.73
2022-12-04T07:29:26.309Z,2.85
2022-12-04T07:31:54.522Z,2.82
2022-12-04T07:34:23.917Z,3.04
2022-12-04T07:36:57.826Z,2.93
2022-12-04T07:39:29.449Z,2.85
2022-12-04T07:41:57.529Z,3.08
2022-12-04T07:44:25.776Z,3.07
2022-12-04T07:46:53.717Z,3.13
2022-12-04T07:49:23.541Z,2.96
2022-12-04T07:51:51.444Z,2.93
2022-12-04T07:54:19.643Z,2.93
2022-12-04T07:56:47.527Z,3.18
2022-12-04T07:59:15.332Z,3.06
2022-12-04T08:01:43.240Z,2.91
2022-12-04T08:04:12.018Z,2.93
2022-12-04T08:06:41.692Z,3.01
2022-12-04T08:09:21.346Z,3.01
2022-12-04T08:11:49.329Z,2.94
2022-12-04T08:14:17.311Z,3.04
2022-12-04T08:16:49.663Z,2.99
2022-12-04T08:19:20.405Z,3.03
2022-12-04T08:21:49.740Z,3.00
2022-12-04T08:24:17.860Z,3.13
2022-12-04T08:26:45.994Z,3.20
2022-12-04T08:29:13.863Z,3.19
2022-12-04T08:31:41.826Z,3.09
2022-12-04T08:34:13.097Z,3.21
2022-12-04T08:43:27.488Z,3.27
2022-12-04T08:46:41.141Z,3.18
2022-12-04T08:52:35.967Z,3.47
2022-12-04T08:55:17.325Z,3.32
2022-12-04T08:57:50.149Z,3.37
2022-12-04T09:00:20.763Z,3.28
2022-12-04T09:02:52.109Z,3.42
2022-12-04T09:05:21.786Z,3.34
2022-12-04T09:07:50.577Z,3.36
2022-12-04T09:10:20.449Z,3.40
2022-12-04T09:12:48.530Z,3.56
2022-12-04T09:15:16.492Z,3.57
2022-12-04T09:17:44.676Z,3.63
2022-12-04T09:20:14.973Z,3.48
2022-12-04T09:23:02.709Z,3.58
2022-12-04T09:25:33.738Z,3.50
2022-12-04T09:28:02.887Z,3.56
2022-12-04T09:30:33.199Z,3.63
2022-12-04T09:33:03.706Z,3.61
2022-12-04T09:35:31.445Z,3.65
2022-12-04T09:37:59.251Z,3.85
2022-12-04T09:40:37.211Z,3.74
2022-12-04T09:43:17.245Z,4.06
2022-12-04T09:45:49.742Z,3.76
2022-12-04T09:48:20.886Z,4.02
2022-12-04T09:50:50.086Z,3.79
2022-12-04T09:53:23.721Z,3.95
2022-12-04T09:55:56.330Z,3.93
2022-12-04T09:58:29.816Z,3.69
2022-12-04T10:00:58.515Z,3.99
2022-12-04T10:03:29.535Z,4.19
2022-12-04T10:06:06.273Z,4.08
2022-12-04T10:08:37.233Z,4.31
2022-12-04T10:11:13.724Z,4.21
2022-12-04T10:13:57.930Z,4.19
2022-12-04T10:16:34.584Z,4.31
2022-12-04T10:19:09.879Z,4.19
2022-12-04T10:21:49.658Z,4.31
2022-12-04T10:24:27.223Z,4.03
2022-12-04T10:26:59.775Z,4.14
2022-12-04T10:29:32.314Z,4.02
2022-12-04T10:32:14.899Z,4.24
2022-12-04T10:34:45.963Z,4.22
2022-12-04T10:37:15.685Z,4.21
2022-12-04T10:39:49.314Z,4.18
2022-12-04T10:42:26.720Z,4.14
2022-12-04T10:44:56.727Z,4.42
2022-12-04T10:47:25.797Z,4.15
2022-12-04T10:50:06.912Z,4.69
2022-12-04T10:52:35.966Z,4.47
2022-12-04T10:55:04.409Z,4.32
2022-12-04T10:57:40.868Z,4.46
2022-12-04T11:00:26.991Z,4.50
2022-12-04T11:02:56.601Z,4.44
2022-12-04T11:05:28.034Z,4.43
2022-12-04T11:07:57.372Z,4.52
2022-12-04T11:10:31.940Z,4.32
2022-12-04T11:13:03.112Z,4.40
2022-12-04T11:15:35.767Z,4.38
2022-12-04T11:18:19.314Z,4.35
2022-12-04T11:20:54.595Z,4.39
2022-12-04T11:23:23.415Z,4.52
2022-12-04T11:25:53.795Z,4.39
2022-12-04T11:28:41.238Z,4.55
2022-12-04T11:31:18.377Z,4.26
2022-12-04T11:33:49.442Z,4.53
2022-12-04T11:36:21.970Z,4.45
2022-12-04T11:38:52.052Z,4.58
2022-12-04T11:41:28.725Z,4.59
2022-12-04T11:44:00.737Z,4.72
2022-12-04T11:46:32.668Z,4.82
2022-12-04T11:49:03.035Z,4.60
2022-12-04T11:51:44.319Z,4.48
2022-12-04T11:54:24.870Z,4.56
2022-12-04T11:57:04.784Z,4.58
2022-12-04T11:59:48.035Z,4.61
2022-12-04T12:02:35.211Z,4.71
2022-12-04T12:05:43.965Z,4.66
2022-12-04T12:08:22.126Z,4.62
2022-12-04T12:10:59.759Z,4.87
2022-12-04T12:13:35.762Z,4.63
2022-12-04T12:16:10.909Z,4.75
2022-12-04T12:19:09.540Z,4.59
2022-12-04T12:21:54.536Z,4.45
2022-12-04T12:24:28.179Z,4.62
2022-12-04T12:27:11.390Z,4.52
2022-12-04T12:29:51.524Z,4.62
2022-12-04T12:32:31.433Z,4.57
2022-12-04T12:35:02.077Z,4.17
2022-12-04T12:37:39.369Z,4.42
2022-12-04T12:40:14.278Z,4.59
2022-12-04T12:42:55.043Z,4.56
2022-12-04T12:45:31.991Z,4.62
2022-12-04T12:48:06.455Z,4.60
2022-12-04T12:50:43.501Z,4.69
2022-12-04T12:53:16.457Z,4.58
2022-12-04T12:55:48.882Z,4.50
2022-12-04T12:58:20.056Z,4.58
2022-12-04T13:01:00.731Z,4.83
2022-12-04T13:03:39.890Z,4.68
2022-12-04T13:06:17.076Z,4.76
2022-12-04T13:08:58.141Z,4.62
2022-12-04T13:11:31.210Z,4.59
2022-12-04T13:14:04.603Z,4.80
2022-12-04T13:16:45.357Z,4.90
2022-12-04T13:19:23.785Z,4.81
2022-12-04T13:25:48.848Z,4.79
2022-12-04T13:28:31.511Z,4.57
2022-12-04T13:31:11.255Z,4.43
2022-12-04T13:33:53.374Z,4.70
2022-12-04T13:36:38.342Z,4.50
2022-12-04T13:39:29.526Z,4.34
2022-12-04T13:41:59.730Z,4.31
2022-12-04T13:44:37.029Z,4.64
2022-12-04T13:47:18.096Z,4.39
2022-12-04T13:49:46.174Z,4.41
2022-12-04T13:52:24.272Z,4.39
2022-12-04T13:55:00.199Z,4.40
2022-12-04T13:57:29.638Z,4.40
2022-12-04T14:00:28.943Z,4.34
2022-12-04T14:03:01.906Z,4.38
2022-12-04T14:05:42.759Z,4.10
2022-12-04T14:08:27.781Z,3.88
2022-12-04T14:11:04.559Z,3.98
2022-12-04T14:13:45.420Z,4.01
2022-12-04T14:16:22.059Z,4.34
2022-12-04T14:18:52.319Z,4.29
2022-12-04T14:21:20.707Z,4.26
2022-12-04T14:23:49.157Z,4.20
2022-12-04T14:26:29.315Z,4.27
2022-12-04T14:29:34.184Z,4.28
2022-12-04T14:32:10.799Z,4.30
2022-12-04T14:34:39.737Z,4.30
2022-12-04T14:37:08.288Z,4.37
2022-12-04T14:39:41.793Z,4.12
2022-12-04T14:42:17.416Z,4.32
2022-12-04T14:44:52.677Z,4.34
2022-12-04T14:47:31.785Z,4.32
2022-12-04T14:50:14.503Z,4.45
2022-12-04T14:52:50.923Z,4.32
2022-12-04T14:55:28.015Z,4.40
2022-12-04T14:58:21.841Z,4.23
2022-12-04T15:00:54.482Z,4.33
2022-12-04T15:03:23.190Z,4.34
2022-12-04T15:05:51.879Z,4.30
2022-12-04T15:08:20.418Z,4.35
2022-12-04T15:11:08.738Z,4.26
2022-12-04T15:13:39.840Z,3.99
2022-12-04T15:16:17.066Z,4.17
2022-12-04T15:18:54.973Z,4.07
2022-12-04T15:21:23.483Z,4.15
2022-12-04T15:23:51.626Z,4.05
2022-12-04T15:26:21.731Z,4.28
2022-12-04T15:28:53.894Z,4.23
2022-12-04T15:31:24.851Z,4.15
2022-12-04T15:33:56.878Z,4.29
2022-12-04T15:36:40.759Z,4.34
2022-12-04T15:39:08.860Z,4.28
2022-12-04T15:41:38.285Z,4.40
2022-12-04T15:44:28.577Z,4.43
2022-12-04T15:46:59.121Z,4.28
2022-12-04T15:49:29.003Z,4.36
2022-12-04T15:52:06.593Z,4.44
2022-12-04T15:54:36.831Z,4.34
2022-12-04T15:57:07.786Z,4.50
2022-12-04T15:59:40.927Z,4.44
2022-12-04T16:02:23.573Z,4.29
2022-12-04T16:04:51.746Z,4.19
2022-12-04T16:07:24.413Z,4.45
2022-12-04T16:10:01.086Z,4.46
2022-12-04T16:12:33.143Z,4.54
2022-12-04T16:15:02.436Z,4.44
2022-12-04T16:17:32.539Z,4.61
2022-12-04T16:20:01.859Z,4.42
2022-12-04T16:22:31.477Z,4.27
2022-12-04T16:24:59.696Z,4.43
2022-12-04T16:27:28.010Z,4.38
2022-12-04T16:29:56.170Z,4.16
2022-12-04T16:32:29.952Z,4.24
2022-12-04T16:34:58.051Z,4.16
2022-12-04T16:37:27.793Z,4.02
2022-12-04T16:39:55.982Z,4.26
2022-12-04T16:42:26.381Z,4.41
2022-12-04T16:44:54.566Z,4.31
2022-12-04T16:47:23.147Z,4.29
2022-12-04T16:49:53.432Z,4.22
2022-12-04T16:52:22.024Z,4.14
2022-12-04T16:54:49.963Z,4.15
2022-12-04T16:57:17.876Z,3.82
2022-12-04T16:59:45.996Z,4.08
2022-12-04T17:02:19.051Z,3.88
2022-12-04T17:04:48.697Z,3.76
2022-12-04T17:07:19.717Z,3.75
2022-12-04T17:09:47.771Z,3.84
2022-12-04T17:12:15.660Z,3.88
2022-12-04T17:14:43.735Z,3.83
2022-12-04T17:17:11.655Z,3.91
2022-12-04T17:19:39.740Z,3.63
2022-12-04T17:22:07.992Z,3.86
2022-12-04T17:24:43.249Z,3.71
2022-12-04T17:27:25.317Z,3.50
2022-12-04T17:29:53.250Z,3.84
2022-12-04T17:32:23.721Z,3.80
2022-12-04T17:34:54.399Z,3.72
2022-12-04T17:37:26.620Z,3.66
2022-12-04T17:39:55.885Z,3.66
2022-12-04T17:42:24.007Z,3.70
2022-12-04T17:44:52.139Z,3.72
2022-12-04T17:47:20.343Z,3.54
2022-12-04T17:49:48.327Z,3.61
2022-12-04T17:52:16.509Z,3.82
2022-12-04T17:54:44.385Z,3.61
2022-12-04T17:57:13.789Z,3.66
2022-12-04T18:00:00.261Z,3.59
2022-12-04T18:02:28.302Z,3.60
2022-12-04T18:04:56.525Z,3.63
2022-12-04T18:07:24.576Z,3.74
2022-12-04T18:09:52.644Z,3.83
2022-12-04T18:12:23.244Z,3.68
2022-12-04T18:14:51.183Z,3.62
2022-12-04T18:17:20.831Z,3.58
2022-12-04T18:19:48.776Z,3.54
2022-12-04T18:22:16.695Z,3.61
2022-12-04T18:24:44.887Z,3.81
2022-12-04T18:27:12.807Z,3.76
2022-12-04T18:29:42.234Z,3.73
2022-12-04T18:32:10.310Z,3.81
2022-12-04T18:34:38.579Z,3.67
2022-12-04T18:37:06.578Z,3.82
2022-12-04T18:39:34.472Z,3.77
2022-12-04T18:42:02.267Z,3.40
2022-12-04T18:44:32.126Z,3.72
2022-12-04T18:47:01.363Z,3.76
2022-12-04T18:49:29.188Z,3.67
2022-12-04T18:52:00.233Z,3.67
2022-12-04T18:54:28.089Z,3.81
2022-12-04T18:56:56.000Z,3.74
2022-12-04T18:59:25.817Z,3.87
2022-12-04T19:01:56.021Z,3.91
2022-12-04T19:04:26.595Z,3.75
2022-12-04T19:06:56.898Z,3.61
2022-12-04T19:09:54.263Z,3.76
2022-12-04T19:12:15.119Z,3.83
2022-12-04T19:14:43.402Z,3.84
2022-12-04T19:17:11.670Z,3.87
2022-12-04T19:19:41.387Z,3.64
2022-12-04T19:22:09.210Z,3.85
2022-12-04T19:24:37.337Z,3.85
2022-12-04T19:27:11.183Z,3.93
2022-12-04T19:29:40.061Z,3.85
2022-12-04T19:32:08.389Z,3.78
2022-12-04T19:34:36.905Z,3.88
2022-12-04T19:37:07.424Z,4.08
2022-12-04T19:39:35.257Z,4.14
2022-12-04T19:42:03.026Z,4.08
2022-12-04T19:47:19.707Z,4.02
2022-12-04T19:49:47.579Z,4.05
2022-12-04T19:52:17.866Z,4.16
2022-12-04T19:54:46.438Z,4.12
2022-12-04T19:57:14.834Z,3.95
2022-12-04T19:59:46.193Z,3.99
2022-12-04T20:02:15.028Z,4.00
2022-12-04T20:04:43.223Z,4.02
2022-12-04T20:07:11.222Z,3.98
2022-12-04T20:09:40.791Z,3.88
2022-12-04T20:12:09.090Z,4.11
2022-12-04T20:14:37.123Z,3.92
2022-12-04T20:17:05.521Z,4.03
2022-12-04T20:19:33.639Z,3.99
2022-12-04T20:22:03.059Z,3.94
2022-12-04T20:24:30.959Z,3.94
2022-12-04T20:27:00.102Z,3.90
2022-12-04T20:29:28.273Z,4.08
2022-12-04T20:31:56.216Z,4.05
2022-12-04T20:34:24.087Z,4.06
2022-12-04T20:36:52.194Z,4.02
2022-12-04T20:39:21.073Z,4.00
2022-12-04T20:41:49.337Z,3.99
2022-12-04T20:44:20.139Z,4.07
2022-12-04T20:46:48.999Z,4.04
2022-12-04T20:49:22.121Z,4.09
2022-12-04T20:51:52.448Z,4.06
2022-12-04T20:54:22.135Z,4.24
2022-12-04T20:56:52.920Z,4.06
2022-12-04T20:59:24.333Z,4.06
2022-12-04T21:01:53.208Z,4.09
2022-12-04T21:04:21.636Z,4.18
2022-12-04T21:06:49.520Z,4.10
2022-12-04T21:09:19.776Z,4.08
2022-12-04T21:11:50.268Z,4.05
2022-12-04T21:14:37.905Z,4.17
2022-12-04T21:17:09.550Z,4.25
2022-12-04T21:19:38.247Z,4.09
2022-12-04T21:22:06.434Z,4.11
2022-12-04T21:24:38.421Z,4.22
2022-12-04T21:27:07.847Z,4.19
2022-12-04T21:29:36.212Z,4.14
2022-12-04T21:32:04.796Z,4.26
2022-12-04T21:34:34.367Z,4.02
2022-12-04T21:37:02.527Z,3.97
2022-12-04T21:42:34.458Z,4.11
2022-12-04T21:45:04.568Z,4.00
2022-12-04T21:47:32.953Z,3.90
2022-12-04T21:50:02.285Z,3.91
2022-12-04T21:52:30.235Z,3.92
2022-12-04T21:54:58.061Z,3.80
2022-12-04T21:57:26.190Z,4.00
2022-12-04T21:59:54.369Z,3.95
2022-12-04T22:02:22.573Z,3.91
2022-12-04T22:04:50.447Z,3.82
2022-12-04T22:07:19.683Z,3.82
2022-12-04T22:09:47.554Z,3.71
2022-12-04T22:12:41.261Z,3.64
2022-12-04T22:15:03.364Z,3.74
2022-12-04T22:17:31.414Z,3.88
2022-12-04T22:19:59.678Z,3.63
2022-12-04T22:22:29.069Z,3.65
2022-12-04T22:24:56.822Z,3.63
2022-12-04T22:27:24.688Z,3.63
2022-12-04T22:29:52.791Z,3.58
2022-12-04T22:32:21.158Z,3.62
2022-12-04T22:34:49.510Z,3.59
2022-12-04T22:37:17.411Z,3.59
2022-12-04T22:39:46.630Z,3.79
2022-12-04T22:42:14.464Z,3.74
2022-12-04T22:44:42.331Z,3.78
2022-12-04T22:47:10.208Z,3.78
2022-12-04T22:49:38.199Z,3.76
2022-12-04T22:52:06.289Z,3.58
2022-12-04T22:54:34.295Z,3.76
2022-12-04T22:57:03.494Z,3.63
2022-12-04T22:59:31.667Z,3.64
2022-12-04T23:02:00.279Z,3.70
2022-12-04T23:04:28.476Z,3.54
2022-12-04T23:06:56.424Z,3.49
2022-12-04T23:09:25.997Z,3.67
2022-12-04T23:11:55.273Z,3.67
2022-12-04T23:14:24.952Z,3.58
2022-12-04T23:16:52.863Z,3.58
2022-12-04T23:19:22.349Z,3.81
2022-12-04T23:21:56.689Z,3.83
2022-12-04T23:24:35.056Z,3.70
2022-12-04T23:27:02.862Z,3.62
2022-12-04T23:32:19.945Z,3.52
2022-12-04T23:34:47.782Z,3.56
2022-12-04T23:37:15.900Z,3.52
2022-12-04T23:39:44.012Z,3.47
2022-12-04T23:42:11.885Z,3.57
2022-12-04T23:44:41.092Z,3.55
2022-12-04T23:47:09.243Z,3.45
2022-12-04T23:49:37.407Z,3.53
2022-12-04T23:52:08.314Z,3.54
2022-12-04T23:54:37.623Z,3.70
2022-12-04T23:57:05.529Z,3.79
2022-12-04T23:59:33.414Z,3.78
